Time;durP1;ratioP1;P1;durP2;ratioP2;P2;SDS_P1;SDS_P2;PMS_P1;PMS_P2;Temp;Humidity;BMP_temperature;BMP_pressure;BME280_temperature;BME280_humidity;BME280_pressure;Samples;Min_cycle;Max_cycle;Signal;HPM_P1;HPM_P2
2020/12/03 00:00:30;;;;;;;18.08;13.38;;;;;;;;;;5093865;28;20315;-63
2020/12/03 00:02:58;;;;;;;17.65;14.77;;;;;;;;;;5093912;28;20238;-63
2020/12/03 00:05:24;;;;;;;20.73;14.65;;;;;;;;;;5093762;28;20265;-62
2020/12/03 00:07:51;;;;;;;18.38;14.48;;;;;;;;;;5093801;28;20246;-63
2020/12/03 00:10:18;;;;;;;18.50;14.00;;;;;;;;;;5093718;28;20224;-63
2020/12/03 00:12:45;;;;;;;18.25;14.68;;;;;;;;;;5094279;28;20228;-62
2020/12/03 00:15:11;;;;;;;20.60;14.30;;;;;;;;;;5093779;28;20204;-63
2020/12/03 00:17:39;;;;;;;19.65;14.70;;;;;;;;;;5093866;28;20205;-63
2020/12/03 00:20:15;;;;;;;19.40;13.98;;;;;;;;;;5094558;28;20224;-62
2020/12/03 00:22:42;;;;;;;20.98;14.32;;;;;;;;;;5098130;28;20580;-63
2020/12/03 00:25:09;;;;;;;24.70;15.60;;;;;;;;;;5109795;28;20200;-61
2020/12/03 00:27:36;;;;;;;18.10;14.13;;;;;;;;;;5103769;28;20200;-64
2020/12/03 00:30:05;;;;;;;19.73;14.52;;;;;;;;;;5097770;28;20250;-63
2020/12/03 00:32:32;;;;;;;18.75;15.27;;;;;;;;;;5097718;28;20204;-62
2020/12/03 00:34:59;;;;;;;18.13;13.95;;;;;;;;;;5097796;28;20295;-63
2020/12/03 00:37:26;;;;;;;20.63;15.63;;;;;;;;;;5098104;28;20200;-63
2020/12/03 00:39:53;;;;;;;20.45;14.60;;;;;;;;;;5098060;28;20760;-63
2020/12/03 00:42:20;;;;;;;20.90;16.00;;;;;;;;;;5097843;28;20200;-63
2020/12/03 00:44:46;;;;;;;20.10;15.52;;;;;;;;;;5097606;28;20201;-63
2020/12/03 00:47:13;;;;;;;18.52;15.05;;;;;;;;;;5098140;28;20250;-62
2020/12/03 00:49:40;;;;;;;20.38;15.60;;;;;;;;;;5099098;28;20232;-64
2020/12/03 00:52:07;;;;;;;19.88;14.73;;;;;;;;;;5097655;28;20196;-63
2020/12/03 00:54:34;;;;;;;22.67;15.88;;;;;;;;;;5097135;28;20668;-63
2020/12/03 00:57:01;;;;;;;22.63;16.25;;;;;;;;;;5097090;28;20200;-63
2020/12/03 00:59:27;;;;;;;19.27;14.38;;;;;;;;;;5097221;28;20216;-63
2020/12/03 01:01:54;;;;;;;20.90;15.02;;;;;;;;;;5097248;28;20649;-63
2020/12/03 01:04:21;;;;;;;20.05;15.38;;;;;;;;;;5096820;28;20249;-63
2020/12/03 01:06:48;;;;;;;20.23;14.95;;;;;;;;;;5096794;28;20265;-63
2020/12/03 01:09:15;;;;;;;21.38;15.73;;;;;;;;;;5096860;28;20220;-62
2020/12/03 01:11:42;;;;;;;18.58;14.02;;;;;;;;;;5097054;28;20717;-62
2020/12/03 01:14:09;;;;;;;24.05;15.98;;;;;;;;;;5097246;28;20201;-62
2020/12/03 01:16:35;;;;;;;20.25;13.85;;;;;;;;;;5097732;28;20253;-63
2020/12/03 01:19:02;;;;;;;19.08;14.27;;;;;;;;;;5097075;28;20833;-62
2020/12/03 01:21:29;;;;;;;19.88;14.93;;;;;;;;;;5097307;28;20226;-62
2020/12/03 01:23:55;;;;;;;20.90;15.40;;;;;;;;;;5097263;28;20245;-62
2020/12/03 01:26:23;;;;;;;19.30;14.45;;;;;;;;;;5097726;28;20215;-62
2020/12/03 01:28:50;;;;;;;21.27;14.38;;;;;;;;;;5097145;28;20269;-62
2020/12/03 01:31:16;;;;;;;20.35;15.48;;;;;;;;;;5097885;28;20222;-62
2020/12/03 01:33:43;;;;;;;22.73;16.02;;;;;;;;;;5096801;28;20633;-63
2020/12/03 01:36:12;;;;;;;20.38;15.07;;;;;;;;;;5096374;28;20204;-63
2020/12/03 01:38:39;;;;;;;18.45;13.80;;;;;;;;;;5096641;28;20656;-63
2020/12/03 01:41:06;;;;;;;19.88;14.32;;;;;;;;;;5097718;28;20225;-62
2020/12/03 01:43:33;;;;;;;20.30;14.82;;;;;;;;;;5102145;28;20249;-63
2020/12/03 01:46:01;;;;;;;19.95;15.10;;;;;;;;;;5100162;28;20207;-62
2020/12/03 01:48:33;;;;;;;19.50;14.63;;;;;;;;;;5098715;28;20220;-63
2020/12/03 01:51:00;;;;;;;21.92;15.85;;;;;;;;;;5099840;28;20216;-63
2020/12/03 01:53:27;;;;;;;21.83;14.63;;;;;;;;;;5100662;28;20226;-63
2020/12/03 01:55:54;;;;;;;19.65;15.18;;;;;;;;;;5096682;28;20205;-63
2020/12/03 01:58:29;;;;;;;21.83;16.10;;;;;;;;;;5096416;28;20222;-63
2020/12/03 02:00:57;;;;;;;21.50;14.45;;;;;;;;;;5096045;28;20223;-62
2020/12/03 02:03:23;;;;;;;17.75;14.88;;;;;;;;;;5096272;28;20200;-64
2020/12/03 02:05:50;;;;;;;19.83;14.38;;;;;;;;;;5095731;28;20266;-63
2020/12/03 02:08:17;;;;;;;18.85;14.57;;;;;;;;;;5095635;28;20220;-63
2020/12/03 02:10:43;;;;;;;20.02;14.25;;;;;;;;;;5096096;28;20635;-63
2020/12/03 02:13:10;;;;;;;21.13;14.80;;;;;;;;;;5095543;28;20204;-63
2020/12/03 02:15:37;;;;;;;22.75;15.77;;;;;;;;;;5096936;28;20249;-63
2020/12/03 02:18:06;;;;;;;19.55;14.82;;;;;;;;;;5095788;28;20200;-62
2020/12/03 02:20:33;;;;;;;18.95;14.23;;;;;;;;;;5096171;28;20269;-64
2020/12/03 02:23:00;;;;;;;21.10;15.02;;;;;;;;;;5095886;28;20683;-63
2020/12/03 02:25:27;;;;;;;20.50;14.48;;;;;;;;;;5096367;28;20196;-63
2020/12/03 02:27:54;;;;;;;20.58;14.93;;;;;;;;;;5103539;28;20632;-63
2020/12/03 02:30:21;;;;;;;22.23;15.18;;;;;;;;;;5102753;28;20570;-63
2020/12/03 02:32:47;;;;;;;21.30;15.35;;;;;;;;;;5101713;28;20200;-63
2020/12/03 02:35:14;;;;;;;19.00;14.43;;;;;;;;;;5102788;28;20328;-63
2020/12/03 02:37:42;;;;;;;20.33;15.18;;;;;;;;;;5097671;28;20200;-63
2020/12/03 02:40:09;;;;;;;20.15;15.02;;;;;;;;;;5098207;28;20296;-62
2020/12/03 02:42:36;;;;;;;17.75;14.05;;;;;;;;;;5098130;28;20204;-63
2020/12/03 02:45:04;;;;;;;18.38;14.27;;;;;;;;;;5099773;28;20196;-63
2020/12/03 02:47:30;;;;;;;20.25;14.07;;;;;;;;;;5100032;28;20203;-63
2020/12/03 02:49:57;;;;;;;23.65;15.18;;;;;;;;;;5099342;28;20242;-62
2020/12/03 02:52:25;;;;;;;21.90;15.27;;;;;;;;;;5097487;28;20249;-63
2020/12/03 02:54:55;;;;;;;19.45;14.57;;;;;;;;;;5097346;28;20668;-62
2020/12/03 02:57:22;;;;;;;18.38;14.68;;;;;;;;;;5099261;28;20551;-63
2020/12/03 02:59:49;;;;;;;20.15;14.52;;;;;;;;;;5097338;28;20692;-62
2020/12/03 03:02:16;;;;;;;22.42;14.98;;;;;;;;;;5098044;28;20200;-61
2020/12/03 03:04:43;;;;;;;18.13;13.02;;;;;;;;;;5095063;28;20717;-63
2020/12/03 03:07:09;;;;;;;20.30;15.10;;;;;;;;;;5094534;28;20560;-63
2020/12/03 03:09:36;;;;;;;20.65;14.50;;;;;;;;;;5094290;28;20274;-63
2020/12/03 03:12:04;;;;;;;18.13;14.00;;;;;;;;;;5094452;28;20671;-63
2020/12/03 03:14:31;;;;;;;16.30;12.85;;;;;;;;;;5094527;28;20204;-63
2020/12/03 03:16:57;;;;;;;20.95;13.50;;;;;;;;;;5094752;28;20269;-63
2020/12/03 03:19:24;;;;;;;20.30;13.63;;;;;;;;;;5094523;28;20270;-63
2020/12/03 03:21:51;;;;;;;17.65;13.38;;;;;;;;;;5094436;28;20556;-62
2020/12/03 03:24:18;;;;;;;20.40;14.50;;;;;;;;;;5094203;28;20675;-62
2020/12/03 03:26:45;;;;;;;17.70;13.35;;;;;;;;;;5094545;28;20253;-63
2020/12/03 03:29:13;;;;;;;19.80;13.90;;;;;;;;;;5094300;28;20224;-63
2020/12/03 03:31:40;;;;;;;17.60;14.15;;;;;;;;;;5094462;28;20212;-62
2020/12/03 03:34:07;;;;;;;18.40;14.23;;;;;;;;;;5094032;28;20208;-63
2020/12/03 03:36:34;;;;;;;17.13;13.48;;;;;;;;;;5094385;28;20204;-62
2020/12/03 03:39:01;;;;;;;20.45;13.93;;;;;;;;;;5093912;28;20250;-63
2020/12/03 03:41:28;;;;;;;18.88;13.10;;;;;;;;;;5094388;28;20200;-62
2020/12/03 03:43:54;;;;;;;17.63;12.35;;;;;;;;;;5095915;28;20615;-62
2020/12/03 03:46:22;;;;;;;20.92;15.00;;;;;;;;;;5095663;28;20245;-62
2020/12/03 03:48:49;;;;;;;21.77;14.60;;;;;;;;;;5096673;28;20311;-62
2020/12/03 03:51:16;;;;;;;18.55;13.35;;;;;;;;;;5095123;28;20205;-63
2020/12/03 03:53:43;;;;;;;16.23;13.50;;;;;;;;;;5094458;28;20262;-62
2020/12/03 03:56:10;;;;;;;23.95;14.73;;;;;;;;;;5094666;28;20214;-63
2020/12/03 03:58:36;;;;;;;17.42;13.07;;;;;;;;;;5094265;28;20200;-62
2020/12/03 04:01:03;;;;;;;18.85;14.15;;;;;;;;;;5094298;28;20220;-62
2020/12/03 04:03:31;;;;;;;20.58;14.50;;;;;;;;;;5093902;28;20676;-62
2020/12/03 04:07:24;;;;;;;17.73;13.25;;;;;;;;;;5113684;27;20928;-63
2020/12/03 04:09:51;;;;;;;19.17;13.38;;;;;;;;;;5114075;28;20219;-63
2020/12/03 04:12:18;;;;;;;21.42;14.50;;;;;;;;;;5115004;28;20249;-63
2020/12/03 04:14:45;;;;;;;19.88;14.57;;;;;;;;;;5114507;28;20200;-62
2020/12/03 04:17:11;;;;;;;17.77;13.13;;;;;;;;;;5112425;28;20196;-62
2020/12/03 04:19:38;;;;;;;19.25;13.60;;;;;;;;;;5111307;28;20249;-63
2020/12/03 04:22:05;;;;;;;16.40;12.95;;;;;;;;;;5113149;28;20233;-62
2020/12/03 04:24:32;;;;;;;19.17;13.63;;;;;;;;;;5111411;28;20199;-62
2020/12/03 04:26:59;;;;;;;18.10;13.55;;;;;;;;;;5111012;28;20276;-62
2020/12/03 04:29:26;;;;;;;16.13;13.02;;;;;;;;;;5111366;28;20225;-63
2020/12/03 04:31:52;;;;;;;18.38;13.98;;;;;;;;;;5111364;28;20249;-63
2020/12/03 04:34:19;;;;;;;19.10;13.52;;;;;;;;;;5111328;28;20257;-62
2020/12/03 04:36:46;;;;;;;18.52;13.52;;;;;;;;;;5110775;28;20725;-62
2020/12/03 04:39:13;;;;;;;18.05;13.55;;;;;;;;;;5115955;28;20220;-61
2020/12/03 04:41:40;;;;;;;19.10;14.40;;;;;;;;;;5120250;28;20273;-63
2020/12/03 04:44:15;;;;;;;18.35;13.85;;;;;;;;;;5120982;28;20200;-63
2020/12/03 04:46:45;;;;;;;19.92;14.60;;;;;;;;;;5119227;28;20221;-63
2020/12/03 04:49:23;;;;;;;21.55;13.70;;;;;;;;;;5110886;28;20237;-63
2020/12/03 04:52:03;;;;;;;20.60;14.25;;;;;;;;;;5111556;28;20180;-62
2020/12/03 04:54:32;;;;;;;20.83;13.70;;;;;;;;;;5111450;28;20188;-62
2020/12/03 04:57:03;;;;;;;18.30;14.05;;;;;;;;;;5110704;28;20253;-62
2020/12/03 04:59:38;;;;;;;18.58;14.50;;;;;;;;;;5110646;28;20216;-62
2020/12/03 05:02:11;;;;;;;19.23;13.80;;;;;;;;;;5110636;28;20232;-63
2020/12/03 05:04:40;;;;;;;20.30;13.80;;;;;;;;;;5110720;28;20238;-62
2020/12/03 05:07:09;;;;;;;16.50;14.15;;;;;;;;;;5110074;28;20224;-63
2020/12/03 05:09:40;;;;;;;19.38;13.82;;;;;;;;;;5111104;28;20273;-62
2020/12/03 05:12:12;;;;;;;20.40;14.73;;;;;;;;;;5110818;28;20626;-62
2020/12/03 05:14:44;;;;;;;17.70;13.98;;;;;;;;;;5111301;28;20188;-63
2020/12/03 05:17:17;;;;;;;21.50;14.68;;;;;;;;;;5106825;28;20192;-62
2020/12/03 05:19:47;;;;;;;19.98;13.27;;;;;;;;;;5098590;28;20277;-63
2020/12/03 05:22:17;;;;;;;19.02;14.07;;;;;;;;;;5098056;28;20204;-63
2020/12/03 05:24:44;;;;;;;18.17;14.25;;;;;;;;;;5098155;28;20234;-63
2020/12/03 05:27:18;;;;;;;19.85;14.00;;;;;;;;;;5097005;28;20695;-63
2020/12/03 05:29:46;;;;;;;19.20;13.75;;;;;;;;;;5097025;28;20311;-63
2020/12/03 05:32:12;;;;;;;16.27;12.93;;;;;;;;;;5096930;28;20205;-62
2020/12/03 05:34:39;;;;;;;18.42;13.52;;;;;;;;;;5096670;28;20200;-62
2020/12/03 05:37:09;;;;;;;17.83;14.52;;;;;;;;;;5096451;28;20197;-63
2020/12/03 05:39:39;;;;;;;19.55;14.13;;;;;;;;;;5096549;28;20250;-63
2020/12/03 05:42:07;;;;;;;20.95;14.38;;;;;;;;;;5096663;28;20200;-62
2020/12/03 05:44:40;;;;;;;18.42;14.52;;;;;;;;;;5096446;28;20254;-62
2020/12/03 05:47:08;;;;;;;22.65;14.88;;;;;;;;;;5098297;28;20246;-62
2020/12/03 05:49:40;;;;;;;20.92;14.75;;;;;;;;;;5097137;28;20219;-63
2020/12/03 05:52:14;;;;;;;19.33;14.20;;;;;;;;;;5098537;28;20189;-62
2020/12/03 05:54:41;;;;;;;18.70;14.60;;;;;;;;;;5100655;28;20254;-63
2020/12/03 05:57:20;;;;;;;16.65;13.23;;;;;;;;;;5101657;28;20290;-62
2020/12/03 05:59:50;;;;;;;18.48;14.32;;;;;;;;;;5100238;28;20278;-63
2020/12/03 06:02:20;;;;;;;19.52;14.50;;;;;;;;;;5097889;28;20299;-62
2020/12/03 06:04:50;;;;;;;19.67;14.50;;;;;;;;;;5096649;28;20208;-63
2020/12/03 06:07:42;;;;;;;17.45;13.73;;;;;;;;;;5096092;28;20220;-62
2020/12/03 06:10:17;;;;;;;20.08;14.25;;;;;;;;;;5081220;28;20297;-61
2020/12/03 06:12:57;;;;;;;18.95;14.38;;;;;;;;;;5100682;28;20203;-63
2020/12/03 06:15:29;;;;;;;24.17;15.40;;;;;;;;;;5102347;28;20223;-62
2020/12/03 06:18:14;;;;;;;21.77;15.00;;;;;;;;;;5102429;28;20255;-63
2020/12/03 06:20:53;;;;;;;22.42;14.35;;;;;;;;;;5093197;28;20250;-62
2020/12/03 06:23:33;;;;;;;18.17;14.27;;;;;;;;;;5105560;28;20238;-62
2020/12/03 06:26:05;;;;;;;19.33;14.00;;;;;;;;;;5102327;28;20299;-63
2020/12/03 06:28:38;;;;;;;22.30;16.10;;;;;;;;;;5098316;28;20188;-62
2020/12/03 06:31:13;;;;;;;17.95;13.77;;;;;;;;;;5096346;28;20216;-61
2020/12/03 06:33:42;;;;;;;19.88;15.27;;;;;;;;;;5097041;28;20636;-61
2020/12/03 06:36:36;;;;;;;19.42;14.57;;;;;;;;;;5097289;28;20279;-64
2020/12/03 06:39:18;;;;;;;22.23;14.95;;;;;;;;;;5096135;28;20189;-64
2020/12/03 06:41:47;;;;;;;20.83;14.95;;;;;;;;;;5095923;28;20234;-62
2020/12/03 06:44:17;;;;;;;21.30;15.38;;;;;;;;;;5094790;28;20733;-63
2020/12/03 06:46:57;;;;;;;21.45;14.95;;;;;;;;;;5094776;28;20259;-63
2020/12/03 06:49:42;;;;;;;21.52;16.25;;;;;;;;;;5094201;28;20220;-63
2020/12/03 06:52:22;;;;;;;20.55;15.75;;;;;;;;;;5094426;28;20245;-63
2020/12/03 06:55:02;;;;;;;21.20;15.43;;;;;;;;;;5094885;28;20192;-63
2020/12/03 06:57:47;;;;;;;25.55;16.80;;;;;;;;;;5095500;28;20245;-62
2020/12/03 07:00:37;;;;;;;21.73;15.95;;;;;;;;;;5094867;28;20277;-63
2020/12/03 07:03:18;;;;;;;23.30;16.40;;;;;;;;;;5097017;28;20185;-62
2020/12/03 07:06:05;;;;;;;23.27;16.38;;;;;;;;;;5096619;28;20277;-62
2020/12/03 07:08:58;;;;;;;25.15;16.05;;;;;;;;;;5070828;28;20197;-63
2020/12/03 07:11:48;;;;;;;26.50;16.95;;;;;;;;;;5094799;28;20234;-63
2020/12/03 07:14:34;;;;;;;25.48;17.77;;;;;;;;;;5095733;28;20242;-63
2020/12/03 07:17:19;;;;;;;26.67;17.55;;;;;;;;;;5096326;28;20203;-64
2020/12/03 07:19:56;;;;;;;24.75;18.08;;;;;;;;;;5095389;28;20364;-62
2020/12/03 07:22:25;;;;;;;25.83;17.38;;;;;;;;;;5094893;28;20185;-61
2020/12/03 07:24:52;;;;;;;29.17;18.70;;;;;;;;;;5095210;28;20201;-62
2020/12/03 07:27:28;;;;;;;26.02;18.40;;;;;;;;;;5099534;28;20249;-62
2020/12/03 07:29:57;;;;;;;25.98;19.00;;;;;;;;;;5103109;28;20231;-61
2020/12/03 07:32:33;;;;;;;25.48;18.75;;;;;;;;;;5107500;28;20200;-63
2020/12/03 07:35:05;;;;;;;30.50;19.70;;;;;;;;;;5105680;28;20234;-63
2020/12/03 07:37:38;;;;;;;26.15;19.38;;;;;;;;;;5103497;28;20572;-64
2020/12/03 07:40:05;;;;;;;27.02;18.65;;;;;;;;;;5103144;28;20285;-63
2020/12/03 07:42:32;;;;;;;25.80;18.42;;;;;;;;;;5106946;28;20204;-62
2020/12/03 07:44:59;;;;;;;26.58;19.67;;;;;;;;;;5101024;28;20200;-63
2020/12/03 07:47:33;;;;;;;29.17;20.38;;;;;;;;;;5100612;28;20215;-62
2020/12/03 07:50:02;;;;;;;30.27;19.90;;;;;;;;;;5095512;28;20219;-63
2020/12/03 07:52:36;;;;;;;27.52;19.75;;;;;;;;;;5095568;28;20249;-64
2020/12/03 07:55:29;;;;;;;28.90;18.25;;;;;;;;;;5095133;28;20275;-61
2020/12/03 07:57:57;;;;;;;25.20;18.13;;;;;;;;;;5060095;28;20245;-63
2020/12/03 08:00:46;;;;;;;29.55;20.40;;;;;;;;;;5094132;28;20242;-62
2020/12/03 08:03:32;;;;;;;25.05;18.50;;;;;;;;;;5094552;28;20217;-63
2020/12/03 08:06:06;;;;;;;25.75;17.70;;;;;;;;;;5095722;28;20262;-62
2020/12/03 08:08:35;;;;;;;26.90;18.77;;;;;;;;;;5094761;28;20612;-62
2020/12/03 08:11:02;;;;;;;29.63;19.30;;;;;;;;;;5094280;28;20220;-61
2020/12/03 08:13:30;;;;;;;26.70;18.83;;;;;;;;;;5095489;28;20250;-63
2020/12/03 08:15:58;;;;;;;27.92;18.20;;;;;;;;;;5095198;28;20482;-62
2020/12/03 08:18:39;;;;;;;26.85;19.20;;;;;;;;;;5097639;28;20257;-63
2020/12/03 08:21:06;;;;;;;25.25;18.67;;;;;;;;;;5098373;28;20242;-63
2020/12/03 08:23:33;;;;;;;25.70;19.27;;;;;;;;;;5097743;28;20243;-63
2020/12/03 08:26:00;;;;;;;30.27;20.42;;;;;;;;;;5100117;28;20649;-62
2020/12/03 08:28:28;;;;;;;31.17;19.77;;;;;;;;;;5097803;28;20208;-63
2020/12/03 08:30:54;;;;;;;26.10;17.45;;;;;;;;;;5097506;28;20245;-62
2020/12/03 08:33:31;;;;;;;26.60;18.48;;;;;;;;;;5098070;28;20240;-63
2020/12/03 08:35:59;;;;;;;29.63;19.20;;;;;;;;;;5094912;28;20249;-63
2020/12/03 08:38:28;;;;;;;27.00;19.02;;;;;;;;;;5098895;28;20227;-63
2020/12/03 08:40:57;;;;;;;30.92;19.50;;;;;;;;;;5094966;28;20263;-63
2020/12/03 08:43:24;;;;;;;29.05;19.55;;;;;;;;;;5093560;28;20735;-63
2020/12/03 08:45:54;;;;;;;30.95;20.52;;;;;;;;;;5093187;28;20227;-63
2020/12/03 08:48:25;;;;;;;28.73;19.65;;;;;;;;;;5094343;28;20188;-64
2020/12/03 08:50:56;;;;;;;31.75;23.25;;;;;;;;;;5093365;28;20429;-62
2020/12/03 08:53:23;;;;;;;31.50;20.98;;;;;;;;;;5097347;28;20258;-62
2020/12/03 08:55:49;;;;;;;26.08;19.38;;;;;;;;;;5097659;28;20291;-62
2020/12/03 08:58:20;;;;;;;29.15;19.73;;;;;;;;;;5098966;28;20257;-64
2020/12/03 09:00:48;;;;;;;27.63;20.15;;;;;;;;;;5099490;28;20224;-63
2020/12/03 09:03:14;;;;;;;25.40;19.23;;;;;;;;;;5099065;28;20204;-61
2020/12/03 09:05:44;;;;;;;27.17;19.13;;;;;;;;;;5098576;28;20269;-63
2020/12/03 09:08:12;;;;;;;27.30;18.98;;;;;;;;;;5099607;28;20200;-61
2020/12/03 09:10:39;;;;;;;28.33;19.85;;;;;;;;;;5099717;28;20277;-64
2020/12/03 09:13:07;;;;;;;25.70;17.30;;;;;;;;;;5098593;28;20200;-62
2020/12/03 09:15:34;;;;;;;23.25;17.40;;;;;;;;;;5097807;28;20755;-62
2020/12/03 09:18:01;;;;;;;25.83;18.30;;;;;;;;;;5097652;28;20637;-64
2020/12/03 09:20:28;;;;;;;24.80;18.85;;;;;;;;;;5097029;28;20220;-62
2020/12/03 09:22:56;;;;;;;26.88;17.80;;;;;;;;;;5096911;28;20200;-62
2020/12/03 09:25:22;;;;;;;23.75;18.38;;;;;;;;;;5096441;28;20208;-63
2020/12/03 09:27:50;;;;;;;21.17;16.20;;;;;;;;;;5096520;28;20220;-61
2020/12/03 09:30:19;;;;;;;23.83;16.75;;;;;;;;;;5096991;28;20224;-62
2020/12/03 09:32:49;;;;;;;25.30;17.90;;;;;;;;;;5096308;28;20200;-63
2020/12/03 09:35:16;;;;;;;22.08;16.05;;;;;;;;;;5097007;28;20184;-63
2020/12/03 09:37:43;;;;;;;23.33;16.75;;;;;;;;;;5096496;28;20196;-63
2020/12/03 09:40:10;;;;;;;21.52;14.55;;;;;;;;;;5096050;28;20715;-62
2020/12/03 09:42:42;;;;;;;22.30;15.88;;;;;;;;;;5096094;28;20412;-62
2020/12/03 09:45:12;;;;;;;23.58;15.77;;;;;;;;;;5095835;28;20185;-62
2020/12/03 09:47:41;;;;;;;22.50;16.35;;;;;;;;;;5096003;28;20223;-62
2020/12/03 09:50:08;;;;;;;23.42;17.20;;;;;;;;;;5096134;28;20225;-61
2020/12/03 09:52:36;;;;;;;20.25;16.27;;;;;;;;;;5096036;28;20204;-62
2020/12/03 09:55:10;;;;;;;22.00;16.27;;;;;;;;;;5095554;28;20207;-62
2020/12/03 09:57:37;;;;;;;23.75;17.05;;;;;;;;;;5096924;28;20570;-64
2020/12/03 10:00:06;;;;;;;22.55;15.80;;;;;;;;;;5096601;28;20228;-64
2020/12/03 10:02:51;;;;;;;23.88;16.35;;;;;;;;;;5096104;28;20329;-61
2020/12/03 10:05:23;;;;;;;21.33;15.50;;;;;;;;;;5095991;28;20355;-62
2020/12/03 10:08:16;;;;;;;21.20;16.00;;;;;;;;;;5096504;28;20262;-62
2020/12/03 10:10:47;;;;;;;19.60;14.48;;;;;;;;;;5060692;28;20224;-62
2020/12/03 10:13:23;;;;;;;21.08;15.55;;;;;;;;;;5096273;28;20220;-62
2020/12/03 10:16:07;;;;;;;24.45;16.00;;;;;;;;;;5096395;28;20246;-63
2020/12/03 10:18:38;;;;;;;21.45;16.15;;;;;;;;;;5095702;28;20595;-63
2020/12/03 10:21:06;;;;;;;21.35;16.55;;;;;;;;;;5097405;28;20653;-61
2020/12/03 10:23:38;;;;;;;21.08;15.05;;;;;;;;;;5096474;28;20615;-62
2020/12/03 10:26:15;;;;;;;23.63;17.02;;;;;;;;;;5095021;28;20225;-62
2020/12/03 10:28:43;;;;;;;19.60;14.40;;;;;;;;;;5095778;28;20223;-62
2020/12/03 10:31:10;;;;;;;22.80;15.52;;;;;;;;;;5095721;28;20223;-62
2020/12/03 10:33:37;;;;;;;22.75;15.25;;;;;;;;;;5095629;28;20258;-62
2020/12/03 10:36:09;;;;;;;20.30;14.55;;;;;;;;;;5096160;28;20672;-63
2020/12/03 10:38:39;;;;;;;20.08;15.30;;;;;;;;;;5095603;28;20189;-63
2020/12/03 10:41:06;;;;;;;21.75;15.60;;;;;;;;;;5094608;28;20227;-62
2020/12/03 10:43:36;;;;;;;20.38;14.70;;;;;;;;;;5098012;28;20200;-62
2020/12/03 10:46:07;;;;;;;19.90;14.43;;;;;;;;;;5108137;28;20211;-64
2020/12/03 10:48:35;;;;;;;18.92;13.27;;;;;;;;;;5097255;28;20215;-63
2020/12/03 10:51:04;;;;;;;20.58;15.00;;;;;;;;;;5096153;28;20229;-63
2020/12/03 10:53:31;;;;;;;23.73;15.38;;;;;;;;;;5096022;28;20205;-62
2020/12/03 10:55:59;;;;;;;18.35;13.43;;;;;;;;;;5095694;28;20204;-63
2020/12/03 10:58:29;;;;;;;18.85;13.38;;;;;;;;;;5096719;28;20204;-63
2020/12/03 11:00:58;;;;;;;20.35;15.10;;;;;;;;;;5095827;28;20266;-64
2020/12/03 11:03:28;;;;;;;20.90;14.32;;;;;;;;;;5095619;28;20273;-60
2020/12/03 11:05:55;;;;;;;17.70;13.65;;;;;;;;;;5094946;28;20664;-63
2020/12/03 11:08:22;;;;;;;16.73;12.98;;;;;;;;;;5095393;28;20207;-62
2020/12/03 11:10:53;;;;;;;20.00;14.55;;;;;;;;;;5095502;28;20625;-63
2020/12/03 11:13:20;;;;;;;21.55;14.60;;;;;;;;;;5097346;28;20271;-63
2020/12/03 11:15:48;;;;;;;19.73;13.82;;;;;;;;;;5094425;28;20201;-63
2020/12/03 11:18:19;;;;;;;22.35;15.55;;;;;;;;;;5095453;28;20200;-63
2020/12/03 11:20:46;;;;;;;19.63;13.73;;;;;;;;;;5096225;28;20683;-63
2020/12/03 11:23:21;;;;;;;17.88;13.07;;;;;;;;;;5095951;28;20211;-62
2020/12/03 11:25:49;;;;;;;20.85;13.13;;;;;;;;;;5098338;28;20214;-62
2020/12/03 11:28:35;;;;;;;18.90;14.25;;;;;;;;;;5099054;28;20230;-63
2020/12/03 11:31:03;;;;;;;17.90;12.77;;;;;;;;;;5100424;28;20593;-63
2020/12/03 11:33:31;;;;;;;16.67;12.90;;;;;;;;;;5101499;28;20230;-63
2020/12/03 11:36:12;;;;;;;16.95;12.07;;;;;;;;;;5100979;28;20288;-62
2020/12/03 11:38:41;;;;;;;17.80;13.38;;;;;;;;;;5100319;28;20296;-63
2020/12/03 11:41:15;;;;;;;16.27;12.23;;;;;;;;;;5098424;28;20330;-64
2020/12/03 11:49:13;;;;;;;14.35;11.75;;;;;;;;;;5074319;28;20303;-63
2020/12/03 11:51:40;;;;;;;18.52;12.43;;;;;;;;;;5095513;28;20201;-63
2020/12/03 11:54:07;;;;;;;13.80;11.15;;;;;;;;;;5094516;28;20285;-63
2020/12/03 11:56:35;;;;;;;16.50;13.70;;;;;;;;;;5094578;28;20196;-63
2020/12/03 11:59:12;;;;;;;14.82;12.25;;;;;;;;;;5094099;28;20246;-63
2020/12/03 12:01:39;;;;;;;14.23;11.20;;;;;;;;;;5094912;28;20204;-64
2020/12/03 12:04:08;;;;;;;14.18;10.68;;;;;;;;;;5095492;28;20196;-64
2020/12/03 12:06:42;;;;;;;13.80;11.55;;;;;;;;;;5096452;28;20221;-64
2020/12/03 12:09:14;;;;;;;16.05;12.48;;;;;;;;;;5095447;28;20227;-63
2020/12/03 12:11:45;;;;;;;17.73;14.40;;;;;;;;;;5094645;28;20192;-63
2020/12/03 12:14:12;;;;;;;34.33;23.50;;;;;;;;;;5096205;28;20215;-61
2020/12/03 12:16:39;;;;;;;23.42;17.48;;;;;;;;;;5095095;28;20200;-62
2020/12/03 12:19:06;;;;;;;19.30;14.38;;;;;;;;;;5095973;28;20223;-61
2020/12/03 12:21:35;;;;;;;19.92;12.18;;;;;;;;;;5095084;28;20201;-62
2020/12/03 12:24:02;;;;;;;17.40;11.13;;;;;;;;;;5095157;28;20200;-61
2020/12/03 12:26:29;;;;;;;15.38;11.68;;;;;;;;;;5095013;28;20228;-62
2020/12/03 12:28:56;;;;;;;13.85;10.90;;;;;;;;;;5100191;28;20200;-61
2020/12/03 12:31:23;;;;;;;13.63;11.50;;;;;;;;;;5111331;28;20608;-63
2020/12/03 12:33:49;;;;;;;14.63;10.65;;;;;;;;;;5101435;28;20204;-63
2020/12/03 12:36:16;;;;;;;13.33;10.30;;;;;;;;;;5101707;28;20462;-63
2020/12/03 12:38:43;;;;;;;13.52;10.60;;;;;;;;;;5108970;28;20440;-62
2020/12/03 12:41:11;;;;;;;14.93;11.32;;;;;;;;;;5099069;28;20265;-63
2020/12/03 12:43:37;;;;;;;13.20;10.73;;;;;;;;;;5098878;28;20249;-63
2020/12/03 12:46:04;;;;;;;13.75;10.60;;;;;;;;;;5098533;28;20234;-63
2020/12/03 12:48:31;;;;;;;13.60;9.95;;;;;;;;;;5098464;28;20622;-63
2020/12/03 12:50:58;;;;;;;12.85;10.35;;;;;;;;;;5098416;28;20228;-63
2020/12/03 12:53:24;;;;;;;14.30;11.93;;;;;;;;;;5097177;28;20915;-63
2020/12/03 12:55:51;;;;;;;13.50;10.50;;;;;;;;;;5098086;28;20232;-63
2020/12/03 12:58:19;;;;;;;16.42;12.52;;;;;;;;;;5098569;28;20578;-62
2020/12/03 13:00:46;;;;;;;17.02;12.27;;;;;;;;;;5097847;28;20311;-62
2020/12/03 13:03:14;;;;;;;16.48;12.68;;;;;;;;;;5098723;28;20204;-62
2020/12/03 13:05:40;;;;;;;21.15;13.15;;;;;;;;;;5099074;28;20307;-62
2020/12/03 13:08:07;;;;;;;15.45;11.25;;;;;;;;;;5098373;28;20220;-62
2020/12/03 13:10:34;;;;;;;15.70;11.68;;;;;;;;;;5097789;28;20318;-63
2020/12/03 13:13:01;;;;;;;15.68;11.23;;;;;;;;;;5100585;28;20204;-62
2020/12/03 13:15:28;;;;;;;16.92;12.60;;;;;;;;;;5103405;28;20200;-62
2020/12/03 13:17:55;;;;;;;15.05;11.52;;;;;;;;;;5102390;28;20197;-61
2020/12/03 13:20:22;;;;;;;17.20;11.82;;;;;;;;;;5101052;28;20283;-62
2020/12/03 13:22:49;;;;;;;15.57;12.02;;;;;;;;;;5103131;28;20200;-62
2020/12/03 13:25:15;;;;;;;14.13;10.57;;;;;;;;;;5101807;28;20196;-62
2020/12/03 13:27:42;;;;;;;15.38;11.32;;;;;;;;;;5102342;28;20212;-62
2020/12/03 13:30:09;;;;;;;13.77;11.38;;;;;;;;;;5100110;28;20227;-62
2020/12/03 13:32:37;;;;;;;13.77;10.45;;;;;;;;;;5100516;28;20199;-62
2020/12/03 13:35:03;;;;;;;14.95;11.07;;;;;;;;;;5098331;28;20206;-64
2020/12/03 13:37:30;;;;;;;14.50;10.45;;;;;;;;;;5097799;28;20569;-64
2020/12/03 13:39:57;;;;;;;13.93;10.07;;;;;;;;;;5097667;28;20220;-63
2020/12/03 13:42:24;;;;;;;12.75;10.68;;;;;;;;;;5100588;28;20197;-62
2020/12/03 13:44:51;;;;;;;13.13;9.50;;;;;;;;;;5099828;28;20330;-63
2020/12/03 13:47:17;;;;;;;14.02;10.20;;;;;;;;;;5100556;28;20466;-62
2020/12/03 13:49:45;;;;;;;13.75;11.20;;;;;;;;;;5100537;28;20220;-63
2020/12/03 13:52:12;;;;;;;14.15;10.60;;;;;;;;;;5101212;28;20203;-61
2020/12/03 13:54:39;;;;;;;13.85;10.10;;;;;;;;;;5101208;28;20258;-62
2020/12/03 13:57:05;;;;;;;13.93;10.95;;;;;;;;;;5107660;28;20222;-63
2020/12/03 13:59:32;;;;;;;12.98;9.68;;;;;;;;;;5098795;28;20270;-63
2020/12/03 14:01:59;;;;;;;14.90;10.20;;;;;;;;;;5098225;28;20197;-63
2020/12/03 14:04:26;;;;;;;14.05;9.95;;;;;;;;;;5099314;28;20193;-62
2020/12/03 14:06:54;;;;;;;13.07;10.05;;;;;;;;;;5098755;28;20224;-64
2020/12/03 14:09:20;;;;;;;24.50;14.13;;;;;;;;;;5097422;28;20250;-63
2020/12/03 14:11:47;;;;;;;16.73;10.27;;;;;;;;;;5099269;28;20257;-63
2020/12/03 14:14:14;;;;;;;12.77;9.52;;;;;;;;;;5097097;28;20254;-63
2020/12/03 14:16:41;;;;;;;13.18;10.32;;;;;;;;;;5096610;28;20203;-64
2020/12/03 14:19:07;;;;;;;15.00;10.25;;;;;;;;;;5096665;28;20216;-64
2020/12/03 14:21:34;;;;;;;12.35;9.63;;;;;;;;;;5096468;28;20200;-65
2020/12/03 14:24:02;;;;;;;12.68;10.02;;;;;;;;;;5096010;28;20611;-63
2020/12/03 14:26:29;;;;;;;12.07;9.68;;;;;;;;;;5095739;28;20246;-64
2020/12/03 14:28:55;;;;;;;13.50;10.18;;;;;;;;;;5095724;28;20200;-63
2020/12/03 14:31:22;;;;;;;14.55;11.27;;;;;;;;;;5096271;28;20200;-64
2020/12/03 14:33:49;;;;;;;13.90;10.27;;;;;;;;;;5095800;28;20246;-63
2020/12/03 14:36:16;;;;;;;13.75;9.73;;;;;;;;;;5096701;28;20204;-65